Terminal Aerodrome Forecast
Issued by NWS

Home | Current Version | Previous Version | Text Only | Print | Product List | Glossary On
Versions: 1 2 3 4 5 6 7 8 9 10 11 12 13 14
000
FTUS43 KTOP 210520
TAFMHK
TAF
KMHK 210520Z 2106/2206 08007KT P6SM OVC120
     FM210800 08007KT P6SM VCSH OVC090
     FM210900 09008KT 6SM -RA OVC090
     FM211400 09006KT 6SM -RA OVC030
     FM211600 08007KT 5SM -RA OVC015=

USA.gov is the U.S. government's official web portal to all federal, state and local government web resources and services.